createdAt,value
2023-04-29T00:02:14.809Z,5.75
2023-04-29T00:04:48.977Z,7.05
2023-04-29T00:07:22.701Z,7.03
2023-04-29T00:09:49.779Z,8.57
2023-04-29T00:12:23.731Z,6.68
2023-04-29T00:14:50.982Z,9.25
2023-04-29T00:17:32.818Z,7.47
2023-04-29T00:20:06.687Z,7.60
2023-04-29T00:22:46.640Z,9.55
2023-04-29T00:25:20.716Z,7.43
2023-04-29T00:27:47.749Z,8.20
2023-04-29T00:30:21.727Z,7.85
2023-04-29T00:32:49.153Z,10.05
2023-04-29T00:35:23.669Z,9.73
2023-04-29T00:37:50.672Z,11.00
2023-04-29T00:40:24.660Z,8.70
2023-04-29T00:42:51.789Z,9.52
2023-04-29T00:45:25.664Z,8.40
2023-04-29T00:47:52.817Z,9.05
2023-04-29T00:50:28.680Z,11.70
2023-04-29T00:52:55.994Z,10.05
2023-04-29T00:55:31.670Z,11.15
2023-04-29T00:58:07.091Z,10.38
2023-04-29T01:00:41.729Z,9.63
2023-04-29T01:03:16.813Z,8.80
2023-04-29T01:06:01.658Z,8.70
2023-04-29T01:08:51.708Z,7.10
2023-04-29T01:11:32.680Z,9.32
2023-04-29T01:14:02.568Z,9.80
2023-04-29T01:16:54.655Z,8.88
2023-04-29T01:19:55.366Z,8.50
2023-04-29T01:22:29.676Z,10.18
2023-04-29T01:25:03.785Z,13.35
2023-04-29T01:27:46.693Z,9.43
2023-04-29T01:31:15.699Z,8.77
2023-04-29T01:33:58.602Z,10.23
2023-04-29T01:36:52.719Z,7.72
2023-04-29T01:39:35.659Z,8.68
2023-04-29T01:42:23.205Z,12.27
2023-04-29T01:45:01.704Z,7.60
2023-04-29T01:47:29.918Z,8.38
2023-04-29T01:50:03.707Z,9.70
2023-04-29T01:52:30.839Z,10.80
2023-04-29T01:55:04.722Z,8.32
2023-04-29T01:57:31.773Z,9.77
2023-04-29T02:00:05.794Z,8.60
2023-04-29T02:02:33.176Z,7.82
2023-04-29T02:05:06.721Z,8.68
2023-04-29T02:07:40.699Z,9.15
2023-04-29T02:10:14.747Z,7.38
2023-04-29T02:12:48.718Z,8.27
2023-04-29T02:15:35.726Z,7.50
2023-04-29T02:18:09.696Z,7.53
2023-04-29T02:20:36.753Z,7.47
2023-04-29T02:23:10.726Z,7.63
2023-04-29T02:25:38.409Z,7.43
2023-04-29T02:28:11.747Z,5.07
2023-04-29T02:30:38.843Z,5.73
2023-04-29T02:33:20.725Z,4.95
2023-04-29T02:35:47.975Z,8.45
2023-04-29T02:38:21.718Z,5.72
2023-04-29T02:40:55.729Z,7.65
2023-04-29T02:43:29.735Z,6.90
2023-04-29T02:45:57.400Z,5.10
2023-04-29T02:48:30.704Z,4.57
2023-04-29T02:51:03.808Z,7.85
2023-04-29T02:53:30.939Z,5.23
2023-04-29T02:56:04.735Z,6.22
2023-04-29T02:58:38.669Z,5.88
2023-04-29T03:01:12.943Z,5.00
2023-04-29T03:03:40.525Z,8.38
2023-04-29T03:06:07.744Z,6.80
2023-04-29T03:08:42.788Z,5.35
2023-04-29T03:11:16.685Z,6.25
2023-04-29T03:13:43.685Z,5.17
2023-04-29T03:16:23.787Z,7.13
2023-04-29T03:18:57.756Z,5.30
2023-04-29T03:21:32.797Z,7.90
2023-04-29T03:23:59.873Z,5.55
2023-04-29T03:26:33.733Z,6.93
2023-04-29T03:29:00.788Z,5.22
2023-04-29T03:31:34.775Z,6.30
2023-04-29T03:34:01.886Z,5.15
2023-04-29T03:36:35.680Z,10.05
2023-04-29T03:39:09.776Z,8.35
2023-04-29T03:41:43.700Z,5.95
2023-04-29T03:44:17.824Z,5.50
2023-04-29T03:46:51.799Z,4.28
2023-04-29T03:49:25.726Z,7.47
2023-04-29T03:51:52.970Z,5.97
2023-04-29T03:54:26.755Z,5.13
2023-04-29T03:56:55.920Z,7.30
2023-04-29T03:59:23.514Z,6.27
2023-04-29T04:01:57.756Z,6.30
2023-04-29T04:04:25.553Z,9.48
2023-04-29T04:06:59.731Z,10.07
2023-04-29T04:09:27.230Z,10.83
2023-04-29T04:12:00.779Z,9.90
2023-04-29T04:14:28.122Z,7.67
2023-04-29T04:17:07.720Z,8.60
2023-04-29T04:19:41.737Z,10.20
2023-04-29T04:22:09.041Z,11.27
2023-04-29T04:24:43.704Z,10.90
2023-04-29T04:27:11.341Z,9.33
2023-04-29T04:29:38.747Z,10.67
2023-04-29T04:32:12.757Z,10.10
2023-04-29T04:34:39.841Z,9.30
2023-04-29T04:37:13.743Z,8.33
2023-04-29T04:39:41.036Z,8.33
2023-04-29T04:42:14.753Z,9.17
2023-04-29T04:44:48.760Z,8.90
2023-04-29T04:47:22.792Z,10.77
2023-04-29T04:49:59.695Z,8.90
2023-04-29T04:52:33.779Z,8.93
2023-04-29T04:55:01.210Z,8.52
2023-04-29T04:57:34.751Z,13.40
2023-04-29T05:00:02.530Z,9.68
2023-04-29T05:02:36.983Z,8.40
2023-04-29T05:05:04.539Z,7.32
2023-04-29T05:07:33.346Z,6.22
2023-04-29T05:10:06.837Z,7.23
2023-04-29T05:12:41.797Z,6.20
2023-04-29T05:15:15.774Z,6.00
2023-04-29T05:18:02.791Z,7.28
2023-04-29T05:20:36.720Z,5.85
2023-04-29T05:23:04.284Z,9.30
2023-04-29T05:25:37.761Z,6.10
2023-04-29T05:28:11.764Z,5.35
2023-04-29T05:30:39.038Z,5.03
2023-04-29T05:33:12.720Z,5.28
2023-04-29T05:35:39.708Z,4.70
2023-04-29T05:38:13.764Z,4.28
2023-04-29T05:40:40.956Z,5.53
2023-04-29T05:43:14.748Z,4.18
2023-04-29T05:45:41.809Z,3.42
2023-04-29T05:48:15.730Z,4.60
2023-04-29T05:50:49.763Z,3.78
2023-04-29T05:53:23.774Z,2.97
2023-04-29T05:55:51.570Z,3.10
2023-04-29T05:58:25.785Z,3.17
2023-04-29T06:00:52.828Z,4.00
2023-04-29T06:03:26.990Z,3.78
2023-04-29T06:06:02.580Z,4.40
2023-04-29T06:08:50.108Z,6.78
2023-04-29T06:11:26.885Z,6.13
2023-04-29T06:14:01.748Z,4.45
2023-04-29T06:16:35.794Z,4.10
2023-04-29T06:19:03.098Z,3.75
2023-04-29T06:21:37.779Z,4.38
2023-04-29T06:24:05.915Z,4.80
2023-04-29T06:26:39.802Z,4.50
2023-04-29T06:29:08.302Z,3.55
2023-04-29T06:31:35.584Z,3.90
2023-04-29T06:34:08.838Z,5.65
2023-04-29T06:36:36.538Z,6.47
2023-04-29T06:39:09.933Z,4.72
2023-04-29T06:41:46.893Z,3.83
2023-04-29T06:44:20.770Z,4.07
2023-04-29T06:46:49.438Z,3.33
2023-04-29T06:49:22.744Z,3.33
2023-04-29T06:51:56.759Z,3.72
2023-04-29T06:54:30.845Z,2.67
2023-04-29T06:56:58.527Z,3.63
2023-04-29T06:59:32.822Z,4.10
2023-04-29T07:02:00.161Z,3.17
2023-04-29T07:04:35.371Z,2.85
2023-04-29T07:07:02.640Z,4.30
2023-04-29T07:09:38.902Z,3.75
2023-04-29T07:12:06.705Z,4.68
2023-04-29T07:14:40.742Z,4.95
2023-04-29T07:17:20.837Z,3.35
2023-04-29T07:20:01.772Z,2.75
2023-04-29T07:22:30.369Z,4.10
2023-04-29T07:25:03.778Z,2.15
2023-04-29T07:27:30.853Z,2.03
2023-04-29T07:30:11.172Z,2.20
2023-04-29T07:32:39.150Z,2.20
2023-04-29T07:35:14.071Z,2.85
2023-04-29T07:37:48.747Z,2.28
2023-04-29T07:40:22.925Z,1.85
2023-04-29T07:42:57.849Z,1.88
2023-04-29T07:45:31.863Z,2.03
2023-04-29T07:47:59.955Z,1.55
2023-04-29T07:50:34.861Z,1.42
2023-04-29T07:53:02.834Z,1.50
2023-04-29T07:55:37.960Z,2.15
2023-04-29T07:58:05.208Z,4.68
2023-04-29T08:00:38.940Z,1.65
2023-04-29T08:03:14.007Z,1.45
2023-04-29T08:05:48.992Z,1.60
2023-04-29T08:08:22.812Z,1.25
2023-04-29T08:10:50.072Z,3.55
2023-04-29T08:13:18.091Z,3.67
2023-04-29T08:15:52.071Z,2.40
2023-04-29T08:18:36.132Z,2.92
2023-04-29T08:21:10.882Z,2.20
2023-04-29T08:23:40.871Z,3.22
2023-04-29T08:26:16.917Z,3.10
2023-04-29T08:28:49.079Z,1.85
2023-04-29T08:31:30.891Z,2.85
2023-04-29T08:33:58.918Z,3.30
2023-04-29T08:36:34.888Z,1.85
2023-04-29T08:39:08.801Z,2.38
2023-04-29T08:41:46.555Z,2.28
2023-04-29T08:44:20.910Z,4.63
2023-04-29T08:46:56.199Z,2.05
2023-04-29T08:49:24.031Z,2.55
2023-04-29T08:52:00.918Z,4.38
2023-04-29T08:54:37.909Z,2.88
2023-04-29T08:57:06.735Z,2.63
2023-04-29T08:59:42.856Z,3.85
2023-04-29T09:02:17.335Z,2.60
2023-04-29T09:05:20.951Z,2.47
2023-04-29T09:07:50.615Z,2.30
2023-04-29T09:10:26.007Z,3.17
2023-04-29T09:12:58.634Z,2.70
2023-04-29T09:15:33.996Z,4.03
2023-04-29T09:18:14.967Z,4.38
2023-04-29T09:20:42.303Z,6.18
2023-04-29T09:23:16.122Z,4.18
2023-04-29T09:26:04.939Z,2.50
2023-04-29T09:28:40.875Z,3.30
2023-04-29T09:31:14.967Z,3.75
2023-04-29T09:34:12.073Z,5.97
2023-04-29T09:36:55.905Z,5.10
2023-04-29T09:39:24.306Z,3.22
2023-04-29T09:42:01.863Z,5.07
2023-04-29T09:44:42.934Z,5.20
2023-04-29T09:47:13.527Z,6.32
2023-04-29T09:49:52.832Z,6.00
2023-04-29T09:52:28.125Z,3.92
2023-04-29T09:55:12.792Z,4.10
2023-04-29T09:57:50.823Z,5.93
2023-04-29T10:00:25.099Z,3.15
2023-04-29T10:02:59.698Z,5.05
2023-04-29T10:05:36.835Z,5.20
2023-04-29T10:08:12.764Z,3.92
2023-04-29T10:10:47.849Z,4.13
2023-04-29T10:13:23.921Z,4.45
2023-04-29T10:16:17.862Z,6.18
2023-04-29T10:18:57.004Z,6.45
2023-04-29T10:21:40.814Z,3.58
2023-04-29T10:24:17.795Z,3.95
2023-04-29T10:26:53.838Z,3.50
2023-04-29T10:29:24.769Z,4.25
2023-04-29T10:32:01.851Z,4.38
2023-04-29T10:34:38.805Z,6.70
2023-04-29T10:37:11.489Z,6.50
2023-04-29T10:40:16.790Z,4.80
2023-04-29T10:42:52.697Z,4.05
2023-04-29T10:45:38.876Z,3.85
2023-04-29T10:48:14.334Z,4.47
2023-04-29T10:50:53.821Z,4.90
2023-04-29T10:53:28.826Z,3.75
2023-04-29T10:56:24.861Z,6.03
2023-04-29T10:58:58.849Z,4.95
2023-04-29T11:01:48.860Z,5.90
2023-04-29T11:04:17.592Z,6.47
2023-04-29T11:06:48.581Z,6.40
2023-04-29T11:09:30.829Z,3.85
2023-04-29T11:12:09.707Z,5.93
2023-04-29T11:14:48.821Z,4.47
2023-04-29T11:17:32.859Z,4.90
2023-04-29T11:20:14.346Z,5.15
2023-04-29T11:22:49.894Z,4.78
2023-04-29T11:25:19.070Z,4.70
2023-04-29T11:27:49.200Z,4.30
2023-04-29T11:30:24.805Z,4.18
2023-04-29T11:32:58.954Z,3.28
2023-04-29T11:35:27.683Z,4.03
2023-04-29T11:38:01.873Z,4.32
2023-04-29T11:40:29.523Z,2.97
2023-04-29T11:43:02.818Z,4.20
2023-04-29T11:45:30.152Z,4.35
2023-04-29T11:48:03.978Z,3.72
2023-04-29T11:50:33.066Z,6.38
2023-04-29T11:53:02.111Z,3.13
2023-04-29T11:55:35.856Z,2.80
2023-04-29T11:58:05.683Z,3.47
2023-04-29T12:00:42.533Z,2.55
2023-04-29T12:03:27.295Z,3.67
2023-04-29T12:05:56.709Z,3.13
2023-04-29T12:08:35.851Z,4.00
2023-04-29T12:11:04.157Z,2.38
2023-04-29T12:13:43.844Z,3.03
2023-04-29T12:16:11.489Z,3.13
2023-04-29T12:18:52.869Z,2.92
2023-04-29T12:21:27.641Z,4.72
2023-04-29T12:24:07.873Z,3.97
2023-04-29T12:26:41.844Z,5.88
2023-04-29T12:29:17.855Z,1.70
2023-04-29T12:31:48.018Z,2.17
2023-04-29T12:34:15.894Z,7.00
2023-04-29T12:36:49.850Z,8.50
2023-04-29T12:39:17.930Z,8.05
2023-04-29T12:41:45.648Z,8.95
2023-04-29T12:44:19.927Z,8.98
2023-04-29T12:46:47.280Z,6.88
2023-04-29T12:49:24.875Z,7.65
2023-04-29T12:51:58.855Z,7.90
2023-04-29T12:54:34.843Z,7.82
2023-04-29T12:57:02.921Z,9.23
2023-04-29T12:59:41.283Z,11.15
2023-04-29T13:02:14.962Z,8.80
2023-04-29T13:04:51.020Z,9.48
2023-04-29T13:07:18.523Z,12.80
2023-04-29T13:09:52.875Z,9.73
2023-04-29T13:12:27.099Z,11.95
2023-04-29T13:15:08.903Z,10.07
2023-04-29T13:17:49.917Z,10.63
2023-04-29T13:20:30.847Z,10.93
2023-04-29T13:22:57.947Z,8.50
2023-04-29T13:25:32.211Z,8.93
2023-04-29T13:27:59.293Z,8.18
2023-04-29T13:30:32.898Z,10.77
2023-04-29T13:33:12.758Z,8.63
2023-04-29T13:35:47.889Z,9.13
2023-04-29T13:38:23.065Z,8.73
2023-04-29T13:40:56.915Z,8.82
2023-04-29T13:43:37.756Z,10.13
2023-04-29T13:46:15.233Z,10.98
2023-04-29T13:52:09.873Z,10.73
2023-04-29T14:04:30.521Z,10.93
2023-04-29T14:07:04.890Z,12.32
2023-04-29T14:09:33.479Z,10.60
2023-04-29T14:12:06.948Z,8.57
2023-04-29T14:14:40.918Z,10.55
2023-04-29T14:17:14.894Z,12.95
2023-04-29T14:19:49.956Z,11.73
2023-04-29T14:22:23.920Z,11.55
2023-04-29T14:24:58.037Z,11.02
2023-04-29T14:27:31.855Z,14.77
2023-04-29T14:30:02.632Z,9.82
2023-04-29T14:32:36.907Z,10.32
2023-04-29T14:35:04.561Z,10.23
2023-04-29T14:37:37.900Z,9.55
2023-04-29T14:40:06.627Z,7.97
2023-04-29T14:42:39.913Z,9.80
2023-04-29T14:45:08.146Z,9.48
2023-04-29T14:47:41.960Z,10.48
2023-04-29T14:50:10.425Z,10.43
2023-04-29T14:52:45.935Z,8.48
2023-04-29T14:55:13.049Z,11.00
2023-04-29T14:57:46.900Z,10.85
2023-04-29T15:00:16.006Z,9.77
2023-04-29T15:02:49.960Z,8.85
2023-04-29T15:05:18.142Z,10.13
2023-04-29T15:07:52.946Z,9.85
2023-04-29T15:10:20.101Z,15.23
2023-04-29T15:12:54.866Z,9.40
2023-04-29T15:15:24.288Z,11.88
2023-04-29T15:17:57.899Z,10.40
2023-04-29T15:20:32.905Z,12.85
2023-04-29T15:23:07.911Z,10.02
2023-04-29T15:25:36.194Z,10.85
2023-04-29T15:28:13.960Z,11.10
2023-04-29T15:30:48.875Z,11.63
2023-04-29T15:33:24.932Z,10.40
2023-04-29T15:36:00.306Z,9.82
2023-04-29T15:38:35.899Z,11.32
2023-04-29T15:41:10.866Z,10.30
2023-04-29T15:43:42.404Z,10.65
2023-04-29T15:46:15.983Z,12.20
2023-04-29T15:48:53.159Z,11.68
2023-04-29T15:51:20.984Z,11.15
2023-04-29T15:53:58.207Z,9.65
2023-04-29T15:56:26.153Z,11.52
2023-04-29T15:59:00.911Z,14.38
2023-04-29T16:01:29.424Z,11.45
2023-04-29T16:04:02.967Z,12.48
2023-04-29T16:06:42.430Z,17.80
2023-04-29T16:09:09.540Z,11.15
2023-04-29T16:11:45.960Z,11.65
2023-04-29T16:14:14.433Z,11.93
2023-04-29T16:16:47.929Z,11.02
2023-04-29T16:19:22.023Z,9.38
2023-04-29T16:21:56.928Z,11.32
2023-04-29T16:24:32.554Z,11.43
2023-04-29T16:27:01.677Z,11.40
2023-04-29T16:29:36.918Z,10.00
2023-04-29T16:32:05.093Z,8.75
2023-04-29T16:34:40.379Z,8.63
2023-04-29T16:37:18.923Z,8.18
2023-04-29T16:39:55.609Z,9.80
2023-04-29T16:42:30.995Z,10.32
2023-04-29T16:45:04.932Z,10.10
2023-04-29T16:47:35.546Z,8.98
2023-04-29T16:50:10.928Z,6.95
2023-04-29T16:52:40.571Z,8.93
2023-04-29T16:55:16.185Z,7.85
2023-04-29T16:57:43.997Z,10.20
2023-04-29T17:00:19.008Z,7.95
2023-04-29T17:02:53.048Z,8.90
2023-04-29T17:05:26.905Z,8.75
2023-04-29T17:07:55.623Z,8.50
2023-04-29T17:10:30.008Z,9.65
2023-04-29T17:13:05.307Z,8.70
2023-04-29T17:15:41.073Z,10.55
2023-04-29T17:18:14.576Z,9.35
2023-04-29T17:20:50.940Z,7.95
2023-04-29T17:23:18.523Z,10.05
2023-04-29T17:25:51.909Z,7.78
2023-04-29T17:28:20.273Z,9.40
2023-04-29T17:30:53.927Z,8.02
2023-04-29T17:33:20.927Z,9.88
2023-04-29T17:35:54.939Z,7.93
2023-04-29T17:38:28.952Z,7.10
2023-04-29T17:41:04.160Z,7.03
2023-04-29T17:43:41.932Z,10.70
2023-04-29T17:46:12.528Z,8.65
2023-04-29T17:48:45.983Z,7.47
2023-04-29T17:51:13.523Z,5.95
2023-04-29T17:53:56.526Z,6.68
2023-04-29T17:56:30.048Z,9.07
2023-04-29T17:58:58.743Z,7.18
2023-04-29T18:01:33.962Z,6.95
2023-04-29T18:04:01.874Z,6.45
2023-04-29T18:06:37.113Z,7.07
2023-04-29T18:09:15.378Z,7.95
2023-04-29T18:11:52.000Z,6.38
2023-04-29T18:14:22.262Z,7.55
2023-04-29T18:16:59.079Z,7.93
2023-04-29T18:19:35.108Z,6.18
2023-04-29T18:22:08.947Z,9.18
2023-04-29T18:24:37.302Z,6.28
2023-04-29T18:27:13.211Z,7.90
2023-04-29T18:29:53.217Z,8.13
2023-04-29T18:32:27.945Z,7.15
2023-04-29T18:34:56.608Z,8.02
2023-04-29T18:37:30.154Z,7.18
2023-04-29T18:40:05.041Z,7.57
2023-04-29T18:42:32.077Z,8.88
2023-04-29T18:45:07.932Z,9.02
2023-04-29T18:47:36.991Z,6.93
2023-04-29T18:50:10.967Z,7.82
2023-04-29T18:52:45.921Z,7.72
2023-04-29T18:55:14.177Z,9.68
2023-04-29T18:57:47.960Z,9.30
2023-04-29T19:00:22.927Z,9.80
2023-04-29T19:02:59.540Z,11.65
2023-04-29T19:05:34.109Z,9.15
2023-04-29T19:08:01.397Z,9.60
2023-04-29T19:10:34.968Z,11.25
2023-04-29T19:13:03.520Z,9.73
2023-04-29T19:15:39.081Z,10.77
2023-04-29T19:18:12.991Z,10.68
2023-04-29T19:20:53.425Z,9.88
2023-04-29T19:23:31.117Z,12.75
2023-04-29T19:25:58.350Z,11.50
2023-04-29T19:28:25.462Z,11.57
2023-04-29T19:30:59.990Z,10.02
2023-04-29T19:33:27.825Z,9.50
2023-04-29T19:36:02.954Z,11.23
2023-04-29T19:38:38.029Z,12.20
2023-04-29T19:41:14.045Z,11.52
2023-04-29T19:43:41.115Z,10.85
2023-04-29T19:46:20.004Z,11.95
2023-04-29T19:48:50.627Z,10.95
2023-04-29T19:51:24.972Z,12.30
2023-04-29T19:54:01.928Z,16.00
2023-04-29T19:56:36.271Z,11.70
2023-04-29T19:59:03.965Z,13.37
2023-04-29T20:01:37.954Z,12.48
2023-04-29T20:04:14.229Z,11.37
2023-04-29T20:06:42.000Z,11.43
2023-04-29T20:09:16.015Z,15.02
2023-04-29T20:11:43.456Z,10.18
2023-04-29T20:14:21.199Z,13.07
2023-04-29T20:16:55.047Z,12.77
2023-04-29T20:19:35.932Z,11.83
2023-04-29T20:22:16.005Z,12.13
2023-04-29T20:24:43.781Z,12.23
2023-04-29T20:27:17.975Z,11.05
2023-04-29T20:29:52.097Z,16.00
2023-04-29T20:32:26.126Z,13.10
2023-04-29T20:35:01.980Z,13.65
2023-04-29T20:37:36.006Z,16.50
2023-04-29T20:40:15.849Z,15.17
2023-04-29T20:42:51.005Z,15.05
2023-04-29T20:45:18.634Z,13.02
2023-04-29T20:47:46.019Z,14.90
2023-04-29T20:50:20.033Z,13.57
2023-04-29T20:52:54.972Z,11.73
2023-04-29T20:55:29.998Z,12.70
2023-04-29T20:58:03.979Z,13.77
2023-04-29T21:00:38.014Z,14.70
2023-04-29T21:03:11.946Z,14.20
2023-04-29T21:05:45.944Z,17.00
2023-04-29T21:08:16.644Z,16.00
2023-04-29T21:10:49.986Z,14.95
2023-04-29T21:13:17.999Z,15.80
2023-04-29T21:15:53.995Z,16.30
2023-04-29T21:18:30.953Z,17.80
2023-04-29T21:21:13.160Z,15.70
2023-04-29T21:23:47.995Z,17.35
2023-04-29T21:26:21.977Z,20.33
2023-04-29T21:28:56.217Z,17.47
2023-04-29T21:31:30.047Z,16.00
2023-04-29T21:34:04.977Z,15.63
2023-04-29T21:36:33.572Z,16.97
2023-04-29T21:39:06.972Z,16.17
2023-04-29T21:41:39.147Z,16.50
2023-04-29T21:44:13.975Z,18.70
2023-04-29T21:46:42.700Z,16.20
2023-04-29T21:49:17.090Z,15.43
2023-04-29T21:51:51.021Z,15.97
2023-04-29T21:54:25.143Z,16.80
2023-04-29T21:57:00.436Z,18.67
2023-04-29T21:59:40.997Z,15.15
2023-04-29T22:02:22.911Z,15.40
2023-04-29T22:04:59.051Z,17.77
2023-04-29T22:07:26.721Z,17.70
2023-04-29T22:09:59.964Z,18.13
2023-04-29T22:12:29.192Z,14.23
2023-04-29T22:15:04.244Z,12.57
2023-04-29T22:17:35.339Z,16.37
2023-04-29T22:20:17.988Z,14.50
2023-04-29T22:22:52.000Z,15.23
2023-04-29T22:25:28.997Z,14.93
2023-04-29T22:28:03.023Z,14.05
2023-04-29T22:30:32.550Z,15.32
2023-04-29T22:33:08.012Z,12.93
2023-04-29T22:35:41.985Z,12.38
2023-04-29T22:38:09.737Z,14.63
2023-04-29T22:40:47.451Z,13.98
2023-04-29T22:43:14.707Z,14.63
2023-04-29T22:45:48.093Z,12.95
2023-04-29T22:48:16.509Z,12.85
2023-04-29T22:51:00.983Z,14.13
2023-04-29T22:53:28.445Z,13.20
2023-04-29T22:56:06.438Z,15.13
2023-04-29T22:58:34.307Z,14.85
2023-04-29T23:01:09.428Z,13.67
2023-04-29T23:03:46.980Z,13.77
2023-04-29T23:06:21.153Z,12.13
2023-04-29T23:08:55.005Z,12.73
2023-04-29T23:11:29.980Z,14.00
2023-04-29T23:14:04.241Z,14.23
2023-04-29T23:16:31.328Z,13.93
2023-04-29T23:19:12.043Z,11.45
2023-04-29T23:21:46.624Z,14.00
2023-04-29T23:24:20.004Z,14.30
2023-04-29T23:26:47.125Z,16.43
2023-04-29T23:29:21.049Z,21.03
2023-04-29T23:31:55.010Z,14.93
2023-04-29T23:34:30.018Z,13.33
2023-04-29T23:37:03.979Z,11.05
2023-04-29T23:39:31.079Z,16.40
2023-04-29T23:42:05.027Z,14.68
2023-04-29T23:44:32.202Z,13.32
2023-04-29T23:47:06.046Z,13.43
2023-04-29T23:49:33.377Z,13.30
2023-04-29T23:52:08.005Z,12.20
2023-04-29T23:54:42.059Z,13.98
2023-04-29T23:57:09.188Z,11.93
2023-04-29T23:59:43.053Z,11.53
